Track Ладонычева Галина

Time Latitude Longitude Accuracy (66% radius in meters) Altitude (meters) Speed (km/hour) Bearing (degrees) Battery (%) GPS flag
12:11:19 55.929537 38.064040 0 0 0 0 1 delete
12:11:18 55.929532 38.064044 0 0 0 0 1 delete
12:11:17 55.929525 38.064047 0 0 0 0 1 delete
12:11:16 55.929522 38.064050 0 0 0 0 1 delete
12:11:15 55.929528 38.064049 0 0 0 0 1 delete
12:11:14 55.929533 38.064048 0 0 0 0 1 delete
12:11:13 55.929537 38.064047 0 0 0 0 1 delete
12:11:12 55.929535 38.064046 0 0 0 0 1 delete
12:11:11 55.929530 38.064048 0 0 0 0 1 delete
12:11:10 55.929528 38.064050 0 0 0 0 1 delete
12:11:09 55.929523 38.064053 0 0 0 0 1 delete
12:11:08 55.929515 38.064058 0 0 0 0 1 delete
12:11:07 55.929515 38.064052 0 0 0 0 1 delete
12:11:06 55.929517 38.064055 0 0 0 0 1 delete
12:11:05 55.929520 38.064052 0 0 0 0 1 delete
12:11:04 55.929523 38.064047 0 0 0 0 1 delete
12:11:03 55.929528 38.064043 0 0 0 0 1 delete
12:11:02 55.929535 38.064040 0 0 0 0 1 delete
12:11:01 55.929545 38.064042 0 0 0 0 1 delete
12:11:00 55.929547 38.064043 0 0 0 0 1 delete
12:10:59 55.929547 38.064043 0 0 0 0 1 delete
12:10:58 55.929544 38.064048 0 0 0 0 1 delete
12:10:57 55.929542 38.064065 0 0 0 0 1 delete
12:10:56 55.929542 38.064097 0 0 0 0 1 delete
12:10:55 55.929540 38.064120 0 0 0 0 1 delete
12:10:54 55.929537 38.064145 0 0 0 0 1 delete
12:10:53 55.929532 38.064168 0 0 0 0 1 delete
12:10:52 55.929517 38.064182 0 0 0 0 1 delete
12:10:51 55.929503 38.064192 0 0 0 0 1 delete
12:10:50 55.929489 38.064207 0 0 0 0 1 delete
12:10:49 55.929482 38.064227 0 0 0 0 1 delete
12:10:48 55.929471 38.064248 0 0 0 0 1 delete
12:10:47 55.929470 38.064283 0 0 0 0 1 delete
12:10:46 55.929478 38.064300 0 0 0 0 1 delete
12:10:45 55.929475 38.064318 0 0 0 0 1 delete
12:10:44 55.929467 38.064343 0 0 0 0 1 delete
12:10:43 55.929455 38.064373 0 0 0 0 1 delete
12:10:42 55.929441 38.064403 0 0 0 0 1 delete
12:10:41 55.929427 38.064435 0 0 0 0 1 delete
12:10:40 55.929417 38.064468 0 0 0 0 1 delete
12:10:39 55.929407 38.064503 0 0 0 0 1 delete
12:10:38 55.929393 38.064535 0 0 0 0 1 delete
12:10:37 55.929382 38.064580 0 0 0 0 1 delete
12:10:36 55.929373 38.064612 0 0 0 0 1 delete
12:10:35 55.929368 38.064641 0 0 0 0 1 delete
12:10:34 55.929363 38.064641 0 0 0 0 1 delete
12:10:33 55.929358 38.064638 0 0 0 0 1 delete
12:10:32 55.929348 38.064633 0 0 0 0 1 delete
12:10:31 55.929337 38.064628 0 0 0 0 1 delete
12:10:30 55.929323 38.064623 0 0 0 0 1 delete